createdAt,value
2017-12-30T00:00:28.877Z,90.32
2017-12-30T00:02:56.408Z,90.51
2017-12-30T00:05:23.852Z,90.62
2017-12-30T00:07:51.321Z,90.59
2017-12-30T00:10:18.776Z,90.59
2017-12-30T00:12:46.261Z,90.22
2017-12-30T00:15:13.709Z,90.24
2017-12-30T00:17:41.180Z,89.84
2017-12-30T00:20:08.628Z,89.79
2017-12-30T00:22:36.110Z,90.07
2017-12-30T00:25:03.579Z,89.66
2017-12-30T00:27:31.062Z,89.46
2017-12-30T00:29:58.516Z,90.50
2017-12-30T00:32:25.968Z,91.14
2017-12-30T00:34:53.442Z,91.24
2017-12-30T00:37:21.017Z,90.62
2017-12-30T00:39:48.487Z,89.97
2017-12-30T00:42:15.932Z,90.31
2017-12-30T00:44:43.406Z,90.41
2017-12-30T00:47:10.872Z,89.91
2017-12-30T00:49:38.344Z,89.51
2017-12-30T00:52:05.793Z,90.30
2017-12-30T00:54:33.268Z,89.62
2017-12-30T00:57:00.720Z,89.36
2017-12-30T00:59:28.220Z,89.38
2017-12-30T01:01:55.721Z,89.41
2017-12-30T01:04:23.173Z,89.38
2017-12-30T01:06:50.683Z,89.30
2017-12-30T01:09:18.125Z,89.63
2017-12-30T01:11:45.587Z,89.23
2017-12-30T01:14:13.030Z,89.63
2017-12-30T01:16:40.504Z,89.15
2017-12-30T01:19:07.934Z,89.25
2017-12-30T01:21:35.475Z,89.26
2017-12-30T01:24:02.926Z,89.44
2017-12-30T01:26:30.406Z,88.93
2017-12-30T01:28:57.946Z,89.03
2017-12-30T01:31:25.401Z,89.07
2017-12-30T01:33:52.827Z,88.84
2017-12-30T01:36:20.360Z,89.31
2017-12-30T01:38:47.786Z,88.91
2017-12-30T01:41:15.240Z,89.08
2017-12-30T01:43:42.673Z,89.16
2017-12-30T01:46:10.187Z,87.68
2017-12-30T01:48:49.474Z,88.40
2017-12-30T01:51:16.988Z,89.05
2017-12-30T01:53:44.446Z,88.70
2017-12-30T01:56:11.891Z,89.21
2017-12-30T01:58:39.459Z,88.79
2017-12-30T02:01:06.909Z,89.04
2017-12-30T02:03:34.371Z,89.18
2017-12-30T02:06:02.030Z,88.97
2017-12-30T02:08:29.515Z,89.24
2017-12-30T02:10:56.993Z,89.25
2017-12-30T02:13:24.452Z,88.85
2017-12-30T02:15:51.877Z,89.02
2017-12-30T02:18:19.349Z,89.10
2017-12-30T02:20:46.786Z,88.60
2017-12-30T02:23:14.251Z,88.30
2017-12-30T02:25:41.778Z,88.50
2017-12-30T02:28:09.230Z,87.87
2017-12-30T02:30:36.657Z,88.18
2017-12-30T02:33:04.131Z,88.19
2017-12-30T02:35:31.618Z,88.32
2017-12-30T02:37:59.066Z,88.31
2017-12-30T02:40:26.537Z,88.26
2017-12-30T02:42:53.978Z,88.18
2017-12-30T02:45:21.439Z,88.10
2017-12-30T02:47:48.910Z,88.11
2017-12-30T02:50:16.388Z,88.34
2017-12-30T02:52:43.855Z,88.05
2017-12-30T02:55:11.306Z,88.29
2017-12-30T02:57:38.742Z,88.96
2017-12-30T03:00:06.202Z,88.58
2017-12-30T03:02:33.638Z,88.68
2017-12-30T03:05:01.095Z,88.99
2017-12-30T03:07:28.526Z,88.95
2017-12-30T03:09:55.998Z,89.13
2017-12-30T03:12:23.489Z,89.17
2017-12-30T03:14:50.942Z,89.35
2017-12-30T03:17:18.402Z,89.33
2017-12-30T03:19:45.837Z,89.35
2017-12-30T03:22:13.356Z,89.12
2017-12-30T03:24:40.766Z,89.25
2017-12-30T03:27:08.295Z,89.25
2017-12-30T03:29:35.736Z,88.86
2017-12-30T03:32:03.213Z,89.12
2017-12-30T03:34:30.671Z,88.72
2017-12-30T03:36:58.127Z,88.47
2017-12-30T03:39:25.566Z,89.45
2017-12-30T03:41:53.022Z,88.78
2017-12-30T03:44:20.457Z,88.58
2017-12-30T03:46:47.926Z,89.01
2017-12-30T03:49:15.379Z,88.56
2017-12-30T03:51:42.813Z,88.77
2017-12-30T03:54:10.276Z,88.53
2017-12-30T03:56:37.718Z,88.35
2017-12-30T03:59:05.169Z,88.50
2017-12-30T04:01:32.614Z,88.58
2017-12-30T04:04:00.071Z,88.67
2017-12-30T04:06:27.510Z,88.54
2017-12-30T04:08:54.975Z,89.01
2017-12-30T04:11:22.512Z,88.27
2017-12-30T04:13:50.010Z,88.62
2017-12-30T04:16:17.546Z,88.68
2017-12-30T04:18:45.082Z,88.56
2017-12-30T04:21:12.522Z,88.64
2017-12-30T04:23:40.005Z,88.47
2017-12-30T04:26:07.457Z,88.40
2017-12-30T04:28:35.002Z,88.41
2017-12-30T04:31:02.426Z,88.94
2017-12-30T04:33:29.881Z,88.50
2017-12-30T04:35:57.407Z,88.26
2017-12-30T04:38:24.871Z,88.16
2017-12-30T04:40:52.309Z,88.28
2017-12-30T04:43:19.778Z,88.11
2017-12-30T04:45:47.242Z,88.06
2017-12-30T04:48:14.703Z,87.47
2017-12-30T04:50:42.167Z,88.12
2017-12-30T04:53:09.632Z,88.12
2017-12-30T04:55:37.108Z,88.14
2017-12-30T04:58:04.539Z,88.10
2017-12-30T05:00:32.022Z,88.99
2017-12-30T05:02:59.508Z,88.01
2017-12-30T05:05:27.019Z,87.86
2017-12-30T05:07:54.457Z,87.76
2017-12-30T05:10:21.933Z,87.79
2017-12-30T05:12:49.466Z,87.58
2017-12-30T05:15:16.935Z,88.26
2017-12-30T05:17:44.383Z,88.02
2017-12-30T05:20:11.899Z,87.96
2017-12-30T05:22:39.359Z,88.34
2017-12-30T05:25:06.803Z,88.65
2017-12-30T05:27:34.276Z,88.81
2017-12-30T05:30:01.722Z,89.21
2017-12-30T05:32:29.173Z,89.86
2017-12-30T05:34:56.605Z,90.15
2017-12-30T05:37:24.115Z,90.58
2017-12-30T05:39:51.579Z,90.80
2017-12-30T05:42:19.117Z,91.13
2017-12-30T05:44:46.555Z,91.62
2017-12-30T05:47:14.027Z,91.73
2017-12-30T05:49:41.459Z,92.16
2017-12-30T05:52:08.918Z,91.96
2017-12-30T05:54:36.391Z,92.23
2017-12-30T05:57:03.850Z,92.24
2017-12-30T05:59:32.212Z,92.48
2017-12-30T06:01:59.675Z,92.64
2017-12-30T06:04:27.112Z,92.61
2017-12-30T06:06:54.863Z,92.39
2017-12-30T06:09:22.333Z,92.26
2017-12-30T06:11:49.794Z,92.26
2017-12-30T06:14:17.329Z,91.51
2017-12-30T06:16:44.770Z,91.22
2017-12-30T06:19:12.228Z,91.71
2017-12-30T06:21:39.684Z,91.37
2017-12-30T06:24:07.154Z,90.73
2017-12-30T06:26:34.590Z,90.86
2017-12-30T06:29:02.050Z,91.18
2017-12-30T06:31:29.503Z,91.34
2017-12-30T06:33:57.046Z,91.50
2017-12-30T06:36:24.520Z,92.09
2017-12-30T06:38:51.962Z,91.79
2017-12-30T06:41:19.428Z,91.38
2017-12-30T06:43:46.861Z,91.16
2017-12-30T06:46:14.319Z,91.30
2017-12-30T06:48:41.765Z,91.32
2017-12-30T06:51:09.217Z,91.23
2017-12-30T06:53:36.645Z,91.28
2017-12-30T06:56:04.104Z,91.77
2017-12-30T06:58:31.545Z,91.35
2017-12-30T07:00:59.094Z,91.64
2017-12-30T07:03:26.567Z,92.12
2017-12-30T07:05:54.067Z,91.81
2017-12-30T07:08:21.493Z,91.48
2017-12-30T07:10:48.950Z,91.89
2017-12-30T07:13:16.386Z,92.14
2017-12-30T07:15:43.834Z,91.90
2017-12-30T07:18:11.510Z,91.89
2017-12-30T07:20:39.010Z,91.60
2017-12-30T07:23:06.458Z,91.15
2017-12-30T07:25:33.928Z,91.48
2017-12-30T07:28:01.395Z,91.67
2017-12-30T07:30:29.753Z,91.29
2017-12-30T07:32:57.218Z,91.06
2017-12-30T07:35:24.663Z,90.87
2017-12-30T07:37:52.118Z,90.96
2017-12-30T07:40:19.555Z,91.09
2017-12-30T07:42:47.009Z,91.51
2017-12-30T07:45:14.458Z,91.93
2017-12-30T07:47:41.922Z,92.96
2017-12-30T07:50:09.412Z,92.30
2017-12-30T07:52:36.888Z,92.50
2017-12-30T07:55:04.323Z,92.11
2017-12-30T07:57:31.791Z,92.61
2017-12-30T07:59:59.224Z,92.97
2017-12-30T08:02:26.653Z,92.90
2017-12-30T08:04:54.109Z,92.53
2017-12-30T08:07:21.542Z,92.54
2017-12-30T08:09:48.989Z,92.09
2017-12-30T08:12:16.445Z,92.02
2017-12-30T08:14:43.918Z,91.91
2017-12-30T08:17:11.352Z,92.25
2017-12-30T08:19:38.817Z,92.12
2017-12-30T08:24:40.186Z,91.99
2017-12-30T08:27:07.659Z,91.83
2017-12-30T08:29:35.122Z,91.75
2017-12-30T08:32:02.639Z,91.79
2017-12-30T08:34:30.123Z,91.99
2017-12-30T08:36:57.566Z,91.91
2017-12-30T08:39:25.022Z,92.15
2017-12-30T08:41:52.478Z,92.87
2017-12-30T08:44:19.901Z,93.04
2017-12-30T08:46:47.462Z,92.37
2017-12-30T08:49:14.980Z,93.28
2017-12-30T08:51:42.444Z,93.12
2017-12-30T08:54:09.883Z,93.21
2017-12-30T08:56:37.347Z,92.43
2017-12-30T08:59:04.777Z,93.29
2017-12-30T09:01:32.234Z,94.34
2017-12-30T09:03:59.753Z,94.47
2017-12-30T09:06:27.230Z,94.49
2017-12-30T09:08:54.694Z,94.41
2017-12-30T09:11:22.171Z,94.90
2017-12-30T09:13:49.629Z,94.84
2017-12-30T09:16:17.054Z,95.02
2017-12-30T09:18:44.607Z,95.05
2017-12-30T09:21:12.011Z,95.33
2017-12-30T09:23:39.515Z,96.13
2017-12-30T09:26:06.950Z,96.12
2017-12-30T09:28:34.417Z,96.11
2017-12-30T09:31:01.891Z,96.29
2017-12-30T09:33:29.337Z,96.42
2017-12-30T09:35:56.770Z,95.68
2017-12-30T09:38:24.234Z,95.24
2017-12-30T09:40:51.675Z,95.49
2017-12-30T09:43:19.157Z,95.29
2017-12-30T09:45:46.610Z,95.45
2017-12-30T09:48:14.066Z,96.04
2017-12-30T09:50:41.530Z,96.02
2017-12-30T09:53:08.975Z,95.59
2017-12-30T09:55:36.435Z,95.58
2017-12-30T09:58:03.876Z,95.84
2017-12-30T10:00:31.337Z,95.32
2017-12-30T10:03:00.310Z,95.29
2017-12-30T10:05:27.873Z,95.49
2017-12-30T10:07:55.318Z,95.32
2017-12-30T10:10:22.782Z,95.00
2017-12-30T10:12:50.210Z,94.43
2017-12-30T10:15:17.681Z,94.60
2017-12-30T10:17:45.113Z,94.77
2017-12-30T10:20:12.574Z,95.35
2017-12-30T10:22:40.027Z,95.34
2017-12-30T10:25:07.828Z,95.52
2017-12-30T10:27:35.290Z,95.32
2017-12-30T10:30:02.805Z,94.55
2017-12-30T10:32:33.103Z,93.83
2017-12-30T10:35:00.558Z,93.88
2017-12-30T10:37:28.021Z,94.54
2017-12-30T10:39:55.465Z,94.23
2017-12-30T10:42:22.922Z,94.45
2017-12-30T10:44:50.371Z,94.66
2017-12-30T10:47:17.854Z,95.83
2017-12-30T10:49:45.294Z,96.25
2017-12-30T10:52:12.806Z,96.15
2017-12-30T10:54:40.246Z,95.41
2017-12-30T10:57:07.800Z,94.94
2017-12-30T10:59:35.235Z,94.76
2017-12-30T11:02:02.678Z,95.11
2017-12-30T11:04:30.132Z,94.39
2017-12-30T11:06:57.612Z,93.98
2017-12-30T11:09:25.072Z,93.73
2017-12-30T11:11:52.527Z,93.93
2017-12-30T11:14:19.988Z,94.94
2017-12-30T11:16:47.526Z,94.75
2017-12-30T11:19:15.243Z,94.25
2017-12-30T11:21:42.678Z,93.70
2017-12-30T11:24:10.211Z,93.69
2017-12-30T11:26:37.682Z,94.11
2017-12-30T11:29:05.158Z,92.90
2017-12-30T11:31:32.611Z,92.58
2017-12-30T11:34:00.062Z,93.11
2017-12-30T11:36:27.605Z,93.18
2017-12-30T11:38:55.189Z,93.42
2017-12-30T11:41:22.700Z,93.25
2017-12-30T11:43:50.133Z,92.89
2017-12-30T11:46:17.603Z,93.60
2017-12-30T11:48:45.039Z,93.76
2017-12-30T11:51:12.500Z,93.62
2017-12-30T11:53:39.933Z,92.93
2017-12-30T11:56:07.392Z,93.14
2017-12-30T11:58:34.820Z,92.79
2017-12-30T12:01:02.278Z,92.68
2017-12-30T12:03:29.705Z,92.20
2017-12-30T12:05:57.176Z,92.37
2017-12-30T12:08:24.632Z,91.95
2017-12-30T12:10:52.124Z,91.46
2017-12-30T12:13:19.646Z,91.76
2017-12-30T12:15:47.115Z,91.58
2017-12-30T12:18:14.578Z,91.20
2017-12-30T12:20:42.114Z,91.09
2017-12-30T12:23:09.674Z,90.71
2017-12-30T12:25:37.114Z,90.85
2017-12-30T12:28:04.578Z,90.62
2017-12-30T12:30:32.023Z,91.16
2017-12-30T12:32:59.486Z,90.62
2017-12-30T12:35:26.917Z,90.46
2017-12-30T12:37:54.373Z,90.32
2017-12-30T12:40:21.804Z,90.13
2017-12-30T12:42:49.266Z,89.94
2017-12-30T12:45:16.726Z,89.87
2017-12-30T12:47:44.238Z,89.61
2017-12-30T12:50:11.814Z,89.52
2017-12-30T12:52:39.382Z,89.19
2017-12-30T12:55:06.840Z,89.68
2017-12-30T12:57:34.273Z,88.96
2017-12-30T13:00:01.739Z,88.90
2017-12-30T13:02:29.327Z,88.57
2017-12-30T13:04:56.791Z,88.64
2017-12-30T13:07:24.341Z,88.43
2017-12-30T13:09:51.862Z,88.68
2017-12-30T13:12:19.301Z,88.56
2017-12-30T13:14:46.770Z,88.19
2017-12-30T13:17:14.215Z,88.31
2017-12-30T13:19:41.687Z,88.54
2017-12-30T13:22:09.123Z,88.18
2017-12-30T13:24:36.586Z,88.01
2017-12-30T13:27:04.032Z,87.76
2017-12-30T13:29:31.568Z,87.29
2017-12-30T13:31:59.094Z,86.65
2017-12-30T13:34:26.557Z,86.71
2017-12-30T13:36:54.001Z,86.23
2017-12-30T13:39:21.494Z,85.97
2017-12-30T13:41:48.961Z,85.07
2017-12-30T13:44:16.454Z,85.04
2017-12-30T13:46:43.933Z,84.90
2017-12-30T13:49:11.378Z,84.93
2017-12-30T13:51:39.007Z,83.97
2017-12-30T13:54:06.474Z,83.49
2017-12-30T13:56:34.074Z,83.32
2017-12-30T13:59:01.557Z,82.73
2017-12-30T14:01:29.022Z,82.85
2017-12-30T14:03:56.474Z,81.92
2017-12-30T14:06:23.957Z,82.60
2017-12-30T14:08:51.417Z,81.63
2017-12-30T14:11:18.913Z,81.21
2017-12-30T14:13:46.352Z,81.19
2017-12-30T14:16:13.818Z,80.50
2017-12-30T14:18:41.268Z,79.91
2017-12-30T14:21:08.769Z,79.98
2017-12-30T14:23:36.309Z,79.91
2017-12-30T14:26:04.379Z,79.27
2017-12-30T14:28:31.895Z,79.80
2017-12-30T14:30:59.329Z,79.11
2017-12-30T14:33:26.815Z,79.05
2017-12-30T14:35:54.262Z,78.94
2017-12-30T14:38:21.745Z,78.33
2017-12-30T14:40:49.309Z,77.85
2017-12-30T14:43:17.090Z,78.22
2017-12-30T14:45:44.746Z,77.89
2017-12-30T14:48:12.230Z,77.56
2017-12-30T14:50:39.682Z,77.48
2017-12-30T14:53:07.151Z,77.49
2017-12-30T14:55:34.629Z,77.40
2017-12-30T14:58:02.094Z,76.93
2017-12-30T15:00:29.555Z,77.70
2017-12-30T15:02:56.995Z,77.35
2017-12-30T15:05:24.521Z,77.73
2017-12-30T15:07:51.971Z,77.04
2017-12-30T15:10:19.502Z,77.67
2017-12-30T15:12:47.095Z,77.91
2017-12-30T15:15:14.564Z,77.38
2017-12-30T15:17:42.068Z,77.59
2017-12-30T15:20:09.530Z,77.52
2017-12-30T15:22:36.978Z,77.84
2017-12-30T15:25:04.433Z,77.50
2017-12-30T15:27:31.881Z,77.91
2017-12-30T15:29:59.355Z,77.94
2017-12-30T15:32:26.830Z,77.96
2017-12-30T15:34:54.291Z,78.07
2017-12-30T15:37:21.806Z,78.32
2017-12-30T15:39:49.263Z,78.51
2017-12-30T15:42:16.723Z,78.59
2017-12-30T15:44:44.190Z,78.44
2017-12-30T15:47:11.699Z,78.02
2017-12-30T15:49:39.174Z,77.74
2017-12-30T15:52:06.705Z,78.21
2017-12-30T15:54:34.217Z,78.14
2017-12-30T15:57:01.694Z,78.21
2017-12-30T15:59:29.175Z,77.90
2017-12-30T16:01:56.637Z,77.55
2017-12-30T16:04:24.138Z,77.56
2017-12-30T16:06:51.626Z,77.32
2017-12-30T16:09:19.229Z,77.42
2017-12-30T16:11:46.669Z,77.42
2017-12-30T16:14:14.164Z,77.26
2017-12-30T16:16:41.611Z,77.39
2017-12-30T16:19:09.186Z,77.52
2017-12-30T16:21:36.658Z,77.97
2017-12-30T16:24:04.130Z,77.19
2017-12-30T16:26:31.586Z,77.33
2017-12-30T16:28:59.049Z,77.02
2017-12-30T16:31:26.490Z,76.96
2017-12-30T16:33:55.403Z,77.27
2017-12-30T16:36:22.860Z,77.26
2017-12-30T16:38:50.326Z,76.96
2017-12-30T16:41:17.848Z,76.99
2017-12-30T16:43:45.326Z,76.92
2017-12-30T16:46:12.793Z,76.70
2017-12-30T16:48:40.276Z,76.65
2017-12-30T16:51:07.738Z,76.89
2017-12-30T16:53:35.196Z,76.82
2017-12-30T16:56:02.727Z,76.49
2017-12-30T16:58:30.199Z,76.77
2017-12-30T17:00:57.686Z,76.53
2017-12-30T17:03:25.136Z,76.82
2017-12-30T17:05:52.614Z,76.52
2017-12-30T17:08:20.063Z,76.38
2017-12-30T17:10:47.578Z,76.62
2017-12-30T17:13:15.030Z,76.69
2017-12-30T17:15:42.557Z,76.88
2017-12-30T17:18:10.033Z,76.73
2017-12-30T17:20:37.535Z,77.13
2017-12-30T17:23:04.992Z,76.98
2017-12-30T17:25:32.453Z,77.26
2017-12-30T17:27:59.940Z,76.80
2017-12-30T17:30:27.424Z,77.15
2017-12-30T17:32:54.902Z,77.09
2017-12-30T17:35:22.358Z,77.38
2017-12-30T17:37:49.891Z,77.83
2017-12-30T17:40:17.397Z,77.87
2017-12-30T17:42:44.849Z,77.95
2017-12-30T17:45:12.291Z,78.29
2017-12-30T17:47:39.762Z,78.39
2017-12-30T17:50:07.197Z,78.31
2017-12-30T17:52:34.658Z,78.53
2017-12-30T17:55:02.140Z,78.55
2017-12-30T17:57:29.623Z,78.30
2017-12-30T17:59:57.073Z,78.59
2017-12-30T18:02:24.514Z,78.41
2017-12-30T18:04:51.983Z,78.84
2017-12-30T18:07:19.498Z,78.83
2017-12-30T18:09:46.977Z,78.63
2017-12-30T18:12:14.539Z,78.96
2017-12-30T18:14:42.022Z,79.29
2017-12-30T18:17:09.478Z,78.98
2017-12-30T18:19:36.937Z,79.40
2017-12-30T18:22:04.723Z,79.53
2017-12-30T18:24:32.328Z,79.79
2017-12-30T18:26:59.770Z,80.48
2017-12-30T18:29:27.241Z,80.53
2017-12-30T18:31:54.681Z,80.87
2017-12-30T18:34:22.257Z,80.75
2017-12-30T18:36:49.699Z,80.76
2017-12-30T18:39:17.166Z,80.86
2017-12-30T18:41:44.626Z,80.90
2017-12-30T18:44:12.062Z,81.06
2017-12-30T18:46:39.534Z,81.50
2017-12-30T18:49:06.978Z,81.69
2017-12-30T18:51:34.434Z,82.47
2017-12-30T18:54:01.895Z,82.72
2017-12-30T18:56:29.351Z,82.98
2017-12-30T18:58:56.873Z,83.35
2017-12-30T19:01:24.325Z,83.21
2017-12-30T19:03:51.855Z,83.89
2017-12-30T19:06:19.322Z,84.26
2017-12-30T19:08:46.758Z,84.12
2017-12-30T19:11:14.222Z,84.09
2017-12-30T19:13:41.663Z,83.61
2017-12-30T19:16:09.139Z,83.31
2017-12-30T19:18:36.582Z,83.23
2017-12-30T19:21:04.019Z,83.33
2017-12-30T19:23:31.488Z,83.74
2017-12-30T19:25:58.927Z,83.83
2017-12-30T19:28:26.387Z,84.54
2017-12-30T19:30:53.827Z,84.09
2017-12-30T19:33:21.323Z,83.97
2017-12-30T19:35:48.770Z,83.78
2017-12-30T19:38:16.329Z,84.03
2017-12-30T19:40:43.838Z,83.47
2017-12-30T19:43:11.319Z,83.83
2017-12-30T19:45:38.767Z,83.24
2017-12-30T19:48:06.257Z,83.02
2017-12-30T19:50:33.698Z,83.78
2017-12-30T19:53:01.157Z,83.77
2017-12-30T19:55:28.606Z,83.82
2017-12-30T19:57:56.067Z,82.79
2017-12-30T20:00:23.514Z,83.22
2017-12-30T20:02:51.296Z,83.70
2017-12-30T20:05:18.861Z,83.13
2017-12-30T20:07:46.364Z,82.84
2017-12-30T20:10:13.914Z,82.46
2017-12-30T20:12:41.437Z,82.34
2017-12-30T20:15:08.998Z,82.36
2017-12-30T20:17:36.504Z,81.79
2017-12-30T20:20:03.976Z,81.51
2017-12-30T20:22:31.423Z,81.96
2017-12-30T20:24:58.882Z,81.46
2017-12-30T20:27:26.338Z,81.56
2017-12-30T20:29:53.831Z,81.73
2017-12-30T20:32:21.282Z,81.59
2017-12-30T20:34:48.743Z,82.14
2017-12-30T20:37:16.188Z,82.23
2017-12-30T20:39:43.643Z,82.13
2017-12-30T20:42:11.078Z,82.10
2017-12-30T20:44:38.555Z,81.85
2017-12-30T20:47:06.026Z,82.42
2017-12-30T20:49:33.489Z,82.94
2017-12-30T20:52:00.982Z,82.74
2017-12-30T20:54:28.452Z,82.34
2017-12-30T20:56:55.919Z,83.70
2017-12-30T20:59:23.391Z,84.09
2017-12-30T21:01:50.929Z,85.23
2017-12-30T21:04:18.375Z,85.73
2017-12-30T21:06:45.835Z,85.46
2017-12-30T21:09:13.343Z,86.54
2017-12-30T21:11:40.907Z,86.35
2017-12-30T21:14:08.342Z,87.19
2017-12-30T21:16:35.971Z,87.61
2017-12-30T21:19:03.420Z,87.96
2017-12-30T21:21:30.886Z,88.24
2017-12-30T21:23:58.325Z,88.24
2017-12-30T21:26:25.786Z,88.33
2017-12-30T21:28:53.241Z,88.53
2017-12-30T21:31:20.683Z,88.66
2017-12-30T21:33:48.209Z,88.58
2017-12-30T21:36:15.671Z,88.36
2017-12-30T21:38:43.145Z,88.72
2017-12-30T21:41:10.618Z,88.72
2017-12-30T21:43:38.094Z,88.93
2017-12-30T21:46:05.533Z,88.57
2017-12-30T21:48:33.107Z,88.89
2017-12-30T21:51:00.550Z,88.34
2017-12-30T21:53:28.030Z,89.01
2017-12-30T21:55:55.503Z,89.16
2017-12-30T21:58:22.978Z,88.80
2017-12-30T22:00:50.434Z,88.63
2017-12-30T22:03:17.985Z,88.67
2017-12-30T22:05:45.422Z,88.35
2017-12-30T22:08:12.965Z,88.47
2017-12-30T22:10:40.412Z,88.68
2017-12-30T22:13:07.931Z,88.73
2017-12-30T22:15:35.375Z,89.17
2017-12-30T22:18:02.839Z,89.11
2017-12-30T22:20:30.298Z,88.94
2017-12-30T22:22:57.748Z,88.98
2017-12-30T22:25:25.214Z,88.92
2017-12-30T22:27:52.664Z,88.37
2017-12-30T22:30:20.117Z,88.48
2017-12-30T22:32:47.555Z,87.83
2017-12-30T22:35:15.010Z,88.12
2017-12-30T22:37:42.450Z,87.59
2017-12-30T22:40:09.917Z,87.01
2017-12-30T22:42:37.356Z,87.35
2017-12-30T22:45:04.809Z,87.37
2017-12-30T22:47:32.242Z,87.46
2017-12-30T22:49:59.771Z,86.70
2017-12-30T22:52:27.207Z,86.73
2017-12-30T22:54:54.671Z,86.20
2017-12-30T22:57:22.127Z,85.47
2017-12-30T22:59:49.590Z,85.38
2017-12-30T23:02:17.051Z,85.36
2017-12-30T23:04:44.565Z,85.81
2017-12-30T23:07:12.078Z,85.64
2017-12-30T23:09:39.505Z,86.24
2017-12-30T23:12:07.010Z,85.81
2017-12-30T23:14:34.450Z,86.03
2017-12-30T23:17:01.922Z,87.10
2017-12-30T23:19:29.405Z,87.54
2017-12-30T23:21:56.894Z,89.18
2017-12-30T23:24:24.368Z,89.59
2017-12-30T23:26:51.979Z,90.64
2017-12-30T23:29:19.423Z,91.45
2017-12-30T23:31:46.885Z,91.65
2017-12-30T23:34:14.394Z,92.68
2017-12-30T23:36:41.844Z,92.41
2017-12-30T23:39:09.311Z,93.35
2017-12-30T23:41:36.745Z,93.68
2017-12-30T23:44:04.202Z,92.90
2017-12-30T23:46:31.656Z,93.84
2017-12-30T23:48:59.136Z,94.34
2017-12-30T23:51:26.581Z,94.20
2017-12-30T23:53:54.113Z,93.76
2017-12-30T23:56:21.561Z,93.68
2017-12-30T23:58:49.065Z,93.56
